sensor_id;sensor_type;location;lat;lon;timestamp;pressure;altitude;pressure_sealevel;temperature;humidity
47374;BME280;33123;50.118;10.272;2022-11-20T00:00:54;97183.47;;;1.59;68.06
47374;BME280;33123;50.118;10.272;2022-11-20T00:03:21;97169.91;;;1.51;67.50
47374;BME280;33123;50.118;10.272;2022-11-20T00:05:48;97174.91;;;1.52;67.11
47374;BME280;33123;50.118;10.272;2022-11-20T00:08:15;97170.31;;;1.48;67.33
47374;BME280;33123;50.118;10.272;2022-11-20T00:10:41;97179.09;;;1.47;67.47
47374;BME280;33123;50.118;10.272;2022-11-20T00:13:08;97009.41;;;0.15;67.96
47374;BME280;33123;50.118;10.272;2022-11-20T00:15:35;97187.09;;;1.45;68.29
47374;BME280;33123;50.118;10.272;2022-11-20T00:18:03;97017.00;;;0.30;67.81
47374;BME280;33123;50.118;10.272;2022-11-20T00:20:29;97192.09;;;1.47;68.57
47374;BME280;33123;50.118;10.272;2022-11-20T00:22:56;96953.97;;;-0.04;68.65
47374;BME280;33123;50.118;10.272;2022-11-20T00:25:23;97185.28;;;1.52;68.50
47374;BME280;33123;50.118;10.272;2022-11-20T00:27:50;96958.94;;;-0.02;68.55
47374;BME280;33123;50.118;10.272;2022-11-20T00:30:17;97185.50;;;1.57;68.02
47374;BME280;33123;50.118;10.272;2022-11-20T00:32:43;97001.47;;;0.37;68.41
47374;BME280;33123;50.118;10.272;2022-11-20T00:35:11;97182.69;;;1.59;68.17
47374;BME280;33123;50.118;10.272;2022-11-20T00:37:38;97177.91;;;1.63;67.89
47374;BME280;33123;50.118;10.272;2022-11-20T00:40:06;96933.25;;;-0.10;68.23
47374;BME280;33123;50.118;10.272;2022-11-20T00:42:33;97183.47;;;1.66;68.02
47374;BME280;33123;50.118;10.272;2022-11-20T00:44:59;96990.88;;;0.32;67.65
47374;BME280;33123;50.118;10.272;2022-11-20T00:47:26;96932.84;;;-0.14;67.95
47374;BME280;33123;50.118;10.272;2022-11-20T00:49:52;96993.47;;;0.25;68.44
47374;BME280;33123;50.118;10.272;2022-11-20T00:52:20;97186.88;;;1.67;68.09
47374;BME280;33123;50.118;10.272;2022-11-20T00:54:47;97180.50;;;1.63;67.43
47374;BME280;33123;50.118;10.272;2022-11-20T00:57:14;97179.88;;;1.61;67.80
47374;BME280;33123;50.118;10.272;2022-11-20T00:59:40;97015.84;;;0.39;67.29
47374;BME280;33123;50.118;10.272;2022-11-20T01:02:07;97016.22;;;0.43;67.03
47374;BME280;33123;50.118;10.272;2022-11-20T01:04:33;97167.72;;;1.41;67.74
47374;BME280;33123;50.118;10.272;2022-11-20T01:07:00;97120.00;;;1.16;67.97
47374;BME280;33123;50.118;10.272;2022-11-20T01:09:28;97175.91;;;1.51;67.43
47374;BME280;33123;50.118;10.272;2022-11-20T01:11:55;97176.28;;;1.48;67.27
47374;BME280;33123;50.118;10.272;2022-11-20T01:14:21;97088.03;;;0.89;67.47
47374;BME280;33123;50.118;10.272;2022-11-20T01:16:50;97172.69;;;1.43;67.77
47374;BME280;33123;50.118;10.272;2022-11-20T01:19:18;97170.69;;;1.38;68.03
47374;BME280;33123;50.118;10.272;2022-11-20T01:21:48;96841.28;;;-0.87;68.21
47374;BME280;33123;50.118;10.272;2022-11-20T01:24:17;96828.13;;;-0.99;68.01
47374;BME280;33123;50.118;10.272;2022-11-20T01:26:48;97177.53;;;1.39;67.54
47374;BME280;33123;50.118;10.272;2022-11-20T01:29:16;97064.66;;;0.42;66.61
47374;BME280;33123;50.118;10.272;2022-11-20T01:31:43;97186.69;;;1.28;67.52
47374;BME280;33123;50.118;10.272;2022-11-20T01:34:12;97185.06;;;1.27;68.20
47374;BME280;33123;50.118;10.272;2022-11-20T01:36:39;97045.50;;;0.30;68.72
47374;BME280;33123;50.118;10.272;2022-11-20T01:39:09;97037.72;;;0.17;68.69
47374;BME280;33123;50.118;10.272;2022-11-20T01:41:36;96997.03;;;0.11;67.07
47374;BME280;33123;50.118;10.272;2022-11-20T01:44:47;96916.25;;;-0.39;66.20
47374;BME280;33123;50.118;10.272;2022-11-20T01:47:17;97177.69;;;1.31;67.21
47374;BME280;33123;50.118;10.272;2022-11-20T01:49:48;96974.88;;;-0.12;67.40
47374;BME280;33123;50.118;10.272;2022-11-20T01:52:19;96959.09;;;-0.30;67.52
47374;BME280;33123;50.118;10.272;2022-11-20T01:54:50;96987.06;;;0.08;67.34
47374;BME280;33123;50.118;10.272;2022-11-20T01:57:21;97049.13;;;0.42;68.57
47374;BME280;33123;50.118;10.272;2022-11-20T01:59:55;96985.47;;;0.07;68.25
47374;BME280;33123;50.118;10.272;2022-11-20T02:02:23;97182.50;;;1.47;68.27
47374;BME280;33123;50.118;10.272;2022-11-20T02:04:51;97177.88;;;1.49;66.94
47374;BME280;33123;50.118;10.272;2022-11-20T02:07:21;96934.84;;;-0.16;66.69
47374;BME280;33123;50.118;10.272;2022-11-20T02:09:49;96941.03;;;0.03;67.05
47374;BME280;33123;50.118;10.272;2022-11-20T02:12:15;97168.13;;;1.51;68.12
47374;BME280;33123;50.118;10.272;2022-11-20T02:14:58;97107.00;;;1.16;66.89
47374;BME280;33123;50.118;10.272;2022-11-20T02:17:25;97162.31;;;1.49;66.91
47374;BME280;33123;50.118;10.272;2022-11-20T02:19:51;97164.13;;;1.42;66.49
47374;BME280;33123;50.118;10.272;2022-11-20T02:22:22;97161.53;;;1.42;67.47
47374;BME280;33123;50.118;10.272;2022-11-20T02:24:51;97161.13;;;1.45;67.72
47374;BME280;33123;50.118;10.272;2022-11-20T02:27:18;96999.28;;;0.40;66.90
47374;BME280;33123;50.118;10.272;2022-11-20T02:29:48;96795.72;;;-0.88;67.20
47374;BME280;33123;50.118;10.272;2022-11-20T02:32:20;97157.91;;;1.50;67.97
47374;BME280;33123;50.118;10.272;2022-11-20T02:34:47;96986.91;;;0.42;67.80
47374;BME280;33123;50.118;10.272;2022-11-20T02:37:14;96908.31;;;-0.18;67.16
47374;BME280;33123;50.118;10.272;2022-11-20T02:39:43;96833.81;;;-0.49;66.30
47374;BME280;33123;50.118;10.272;2022-11-20T02:42:11;96795.34;;;-0.72;66.37
47374;BME280;33123;50.118;10.272;2022-11-20T02:44:38;96944.81;;;0.27;67.95
47374;BME280;33123;50.118;10.272;2022-11-20T02:47:04;96897.59;;;-0.02;67.87
47374;BME280;33123;50.118;10.272;2022-11-20T02:49:31;97138.75;;;1.57;67.82
47374;BME280;33123;50.118;10.272;2022-11-20T02:51:58;97137.34;;;1.62;68.22
47374;BME280;33123;50.118;10.272;2022-11-20T02:54:25;96877.88;;;-0.16;67.91
47374;BME280;33123;50.118;10.272;2022-11-20T02:56:52;96998.28;;;0.74;67.98
47374;BME280;33123;50.118;10.272;2022-11-20T02:59:20;97138.31;;;1.74;68.52
47374;BME280;33123;50.118;10.272;2022-11-20T03:01:46;97066.88;;;1.31;67.70
47374;BME280;33123;50.118;10.272;2022-11-20T03:04:13;97136.50;;;1.81;67.50
47374;BME280;33123;50.118;10.272;2022-11-20T03:06:40;97138.69;;;1.84;67.92
47374;BME280;33123;50.118;10.272;2022-11-20T03:09:06;97147.88;;;1.87;67.61
47374;BME280;33123;50.118;10.272;2022-11-20T03:11:33;97140.66;;;1.89;67.67
47374;BME280;33123;50.118;10.272;2022-11-20T03:14:02;97143.88;;;1.91;67.34
47374;BME280;33123;50.118;10.272;2022-11-20T03:16:30;96977.72;;;0.79;67.42
47374;BME280;33123;50.118;10.272;2022-11-20T03:18:57;97138.06;;;1.95;67.31
47374;BME280;33123;50.118;10.272;2022-11-20T03:21:23;97137.84;;;1.97;66.77
47374;BME280;33123;50.118;10.272;2022-11-20T03:23:50;97136.03;;;1.97;65.94
47374;BME280;33123;50.118;10.272;2022-11-20T03:26:19;96983.09;;;0.91;66.37
47374;BME280;33123;50.118;10.272;2022-11-20T03:28:48;96909.16;;;0.36;66.32
47374;BME280;33123;50.118;10.272;2022-11-20T03:31:16;96791.59;;;-0.43;67.29
47374;BME280;33123;50.118;10.272;2022-11-20T03:33:45;97139.03;;;1.94;67.76
47374;BME280;33123;50.118;10.272;2022-11-20T03:36:14;97139.22;;;1.99;67.99
47374;BME280;33123;50.118;10.272;2022-11-20T03:38:41;96946.44;;;0.68;67.20
47374;BME280;33123;50.118;10.272;2022-11-20T03:41:10;96953.16;;;0.82;67.76
47374;BME280;33123;50.118;10.272;2022-11-20T03:43:37;96905.34;;;0.38;67.59
47374;BME280;33123;50.118;10.272;2022-11-20T03:46:05;97135.63;;;2.07;68.20
47374;BME280;33123;50.118;10.272;2022-11-20T03:48:32;97123.00;;;2.10;67.20
47374;BME280;33123;50.118;10.272;2022-11-20T03:51:10;97128.81;;;2.13;67.20
47374;BME280;33123;50.118;10.272;2022-11-20T03:53:37;97116.22;;;2.09;67.14
47374;BME280;33123;50.118;10.272;2022-11-20T03:56:05;96972.69;;;1.04;66.76
47374;BME280;33123;50.118;10.272;2022-11-20T03:58:32;97114.22;;;2.05;67.43
47374;BME280;33123;50.118;10.272;2022-11-20T04:01:04;97103.66;;;1.93;67.31
47374;BME280;33123;50.118;10.272;2022-11-20T04:03:31;97117.81;;;2.04;67.46
47374;BME280;33123;50.118;10.272;2022-11-20T04:06:01;97117.81;;;2.04;68.25
47374;BME280;33123;50.118;10.272;2022-11-20T04:12:10;97102.44;;;2.02;68.80
47374;BME280;33123;50.118;10.272;2022-11-20T04:14:36;97101.03;;;2.06;68.36
47374;BME280;33123;50.118;10.272;2022-11-20T04:17:03;97104.22;;;2.08;68.55
47374;BME280;33123;50.118;10.272;2022-11-20T04:19:30;97111.81;;;2.10;68.44
47374;BME280;33123;50.118;10.272;2022-11-20T04:21:57;96600.53;;;-1.12;68.38
47374;BME280;33123;50.118;10.272;2022-11-20T04:24:24;96875.59;;;0.61;68.94
47374;BME280;33123;50.118;10.272;2022-11-20T04:26:51;97118.16;;;2.21;68.60
47374;BME280;33123;50.118;10.272;2022-11-20T04:29:19;96940.56;;;1.12;68.18
47374;BME280;33123;50.118;10.272;2022-11-20T04:31:46;96893.50;;;0.82;68.60
47374;BME280;33123;50.118;10.272;2022-11-20T04:34:14;96912.06;;;0.92;68.13
47374;BME280;33123;50.118;10.272;2022-11-20T04:37:02;96598.16;;;-1.14;68.38
47374;BME280;33123;50.118;10.272;2022-11-20T04:39:31;96688.28;;;-0.44;67.87
47374;BME280;33123;50.118;10.272;2022-11-20T04:41:58;96673.13;;;-0.47;66.94
47374;BME280;33123;50.118;10.272;2022-11-20T04:44:40;96625.00;;;-0.82;67.82
47374;BME280;33123;50.118;10.272;2022-11-20T04:47:07;96722.88;;;-0.19;68.05
47374;BME280;33123;50.118;10.272;2022-11-20T04:49:34;97003.88;;;1.63;68.15
47374;BME280;33123;50.118;10.272;2022-11-20T04:52:01;96841.50;;;0.64;68.34
47374;BME280;33123;50.118;10.272;2022-11-20T04:54:28;97072.44;;;2.06;68.16
47374;BME280;33123;50.118;10.272;2022-11-20T04:56:54;97030.41;;;1.71;68.17
47374;BME280;33123;50.118;10.272;2022-11-20T04:59:22;97030.59;;;1.76;68.29
47374;BME280;33123;50.118;10.272;2022-11-20T05:01:50;96769.88;;;-0.09;68.16
47374;BME280;33123;50.118;10.272;2022-11-20T05:04:16;97087.88;;;2.01;68.16
47374;BME280;33123;50.118;10.272;2022-11-20T05:06:43;97035.41;;;1.73;68.13
47374;BME280;33123;50.118;10.272;2022-11-20T05:09:10;96818.66;;;0.34;68.04
47374;BME280;33123;50.118;10.272;2022-11-20T05:11:37;97075.47;;;1.97;67.20
47374;BME280;33123;50.118;10.272;2022-11-20T05:14:04;96956.28;;;1.24;67.76
47374;BME280;33123;50.118;10.272;2022-11-20T05:16:30;97062.31;;;1.92;67.80
47374;BME280;33123;50.118;10.272;2022-11-20T05:19:01;96845.53;;;0.53;67.91
47374;BME280;33123;50.118;10.272;2022-11-20T05:21:58;97061.09;;;1.94;67.41
47374;BME280;33123;50.118;10.272;2022-11-20T05:24:25;96908.44;;;0.93;67.66
47374;BME280;33123;50.118;10.272;2022-11-20T05:26:52;96812.84;;;0.32;67.58
47374;BME280;33123;50.118;10.272;2022-11-20T05:29:18;96943.94;;;1.13;68.10
47374;BME280;33123;50.118;10.272;2022-11-20T05:31:45;96747.56;;;-0.23;68.34
47374;BME280;33123;50.118;10.272;2022-11-20T05:34:13;96882.56;;;0.80;68.97
47374;BME280;33123;50.118;10.272;2022-11-20T05:36:40;96864.44;;;0.73;68.80
47374;BME280;33123;50.118;10.272;2022-11-20T05:39:06;96862.63;;;0.74;68.30
47374;BME280;33123;50.118;10.272;2022-11-20T05:41:33;97073.78;;;2.16;68.77
47374;BME280;33123;50.118;10.272;2022-11-20T05:44:00;97031.16;;;1.85;69.11
47374;BME280;33123;50.118;10.272;2022-11-20T05:46:27;97081.75;;;2.21;68.88
47374;BME280;33123;50.118;10.272;2022-11-20T05:48:54;96942.69;;;1.28;68.71
47374;BME280;33123;50.118;10.272;2022-11-20T05:51:25;96841.91;;;0.61;69.01
47374;BME280;33123;50.118;10.272;2022-11-20T05:53:52;96947.81;;;1.42;68.99
47374;BME280;33123;50.118;10.272;2022-11-20T05:56:20;97077.34;;;2.28;69.38
47374;BME280;33123;50.118;10.272;2022-11-20T05:58:47;96873.13;;;0.92;68.70
47374;BME280;33123;50.118;10.272;2022-11-20T06:01:17;97007.53;;;1.93;68.96
47374;BME280;33123;50.118;10.272;2022-11-20T06:03:44;96860.75;;;0.94;69.18
47374;BME280;33123;50.118;10.272;2022-11-20T06:06:13;97025.69;;;2.00;69.47
47374;BME280;33123;50.118;10.272;2022-11-20T06:08:41;96846.97;;;0.94;68.38
47374;BME280;33123;50.118;10.272;2022-11-20T06:11:09;97010.72;;;1.95;68.72
47374;BME280;33123;50.118;10.272;2022-11-20T06:13:36;96949.34;;;1.63;68.76
47374;BME280;33123;50.118;10.272;2022-11-20T06:16:04;97055.03;;;2.45;68.00
47374;BME280;33123;50.118;10.272;2022-11-20T06:18:31;96923.81;;;1.53;68.50
47374;BME280;33123;50.118;10.272;2022-11-20T06:21:02;97050.63;;;2.46;68.81
47374;BME280;33123;50.118;10.272;2022-11-20T06:23:30;97017.41;;;2.16;68.61
47374;BME280;33123;50.118;10.272;2022-11-20T06:26:01;96903.28;;;1.38;68.72
47374;BME280;33123;50.118;10.272;2022-11-20T06:28:27;97036.50;;;2.35;68.74
47374;BME280;33123;50.118;10.272;2022-11-20T06:30:54;96792.41;;;0.69;69.22
47374;BME280;33123;50.118;10.272;2022-11-20T06:33:21;96978.28;;;2.04;68.89
47374;BME280;33123;50.118;10.272;2022-11-20T06:35:47;96916.94;;;1.65;69.08
47374;BME280;33123;50.118;10.272;2022-11-20T06:38:14;96722.13;;;0.45;68.53
47374;BME280;33123;50.118;10.272;2022-11-20T06:40:41;96985.88;;;2.06;68.65
47374;BME280;33123;50.118;10.272;2022-11-20T06:43:09;96992.25;;;2.10;68.62
47374;BME280;33123;50.118;10.272;2022-11-20T06:45:36;96922.22;;;1.52;68.73
47374;BME280;33123;50.118;10.272;2022-11-20T06:48:03;96871.63;;;1.23;68.95
47374;BME280;33123;50.118;10.272;2022-11-20T06:50:30;96984.69;;;2.02;69.68
47374;BME280;33123;50.118;10.272;2022-11-20T06:52:56;96873.44;;;1.16;69.27
47374;BME280;33123;50.118;10.272;2022-11-20T06:55:26;96929.00;;;1.53;68.79
47374;BME280;33123;50.118;10.272;2022-11-20T06:57:52;96837.41;;;0.94;68.41
47374;BME280;33123;50.118;10.272;2022-11-20T07:00:21;96984.56;;;1.90;68.32
47374;BME280;33123;50.118;10.272;2022-11-20T07:02:47;97090.34;;;2.59;68.37
47374;BME280;33123;50.118;10.272;2022-11-20T07:05:15;97032.19;;;2.22;69.21
47374;BME280;33123;50.118;10.272;2022-11-20T07:07:41;96768.78;;;0.39;69.04
47374;BME280;33123;50.118;10.272;2022-11-20T07:10:09;97089.34;;;2.60;69.23
47374;BME280;33123;50.118;10.272;2022-11-20T07:12:36;96883.19;;;1.27;69.28
47374;BME280;33123;50.118;10.272;2022-11-20T07:15:03;97055.03;;;2.45;69.40
47374;BME280;33123;50.118;10.272;2022-11-20T07:17:31;97024.91;;;2.31;69.33
47374;BME280;33123;50.118;10.272;2022-11-20T07:19:58;96928.91;;;1.73;69.22
47374;BME280;33123;50.118;10.272;2022-11-20T07:22:24;96968.09;;;2.03;69.09
47374;BME280;33123;50.118;10.272;2022-11-20T07:24:51;96843.66;;;1.25;68.65
47374;BME280;33123;50.118;10.272;2022-11-20T07:27:18;96977.03;;;2.14;68.66
47374;BME280;33123;50.118;10.272;2022-11-20T07:29:45;97053.47;;;2.69;67.77
47374;BME280;33123;50.118;10.272;2022-11-20T07:32:11;96913.22;;;1.86;67.40
47374;BME280;33123;50.118;10.272;2022-11-20T07:34:39;97022.72;;;2.59;67.28
47374;BME280;33123;50.118;10.272;2022-11-20T07:37:06;97076.31;;;2.92;67.07
47374;BME280;33123;50.118;10.272;2022-11-20T07:39:33;97082.06;;;3.01;67.24
47374;BME280;33123;50.118;10.272;2022-11-20T07:41:59;97082.25;;;2.99;67.15
47374;BME280;33123;50.118;10.272;2022-11-20T07:44:26;97061.34;;;2.87;67.26
47374;BME280;33123;50.118;10.272;2022-11-20T07:46:53;96818.94;;;1.16;67.64
47374;BME280;33123;50.118;10.272;2022-11-20T07:49:19;96856.69;;;1.56;67.63
47374;BME280;33123;50.118;10.272;2022-11-20T07:51:49;96759.44;;;0.89;67.93
47374;BME280;33123;50.118;10.272;2022-11-20T07:54:16;97072.66;;;2.75;68.99
47374;BME280;33123;50.118;10.272;2022-11-20T07:56:43;96985.34;;;2.29;69.19
47374;BME280;33123;50.118;10.272;2022-11-20T07:59:10;96936.34;;;2.01;69.26
47374;BME280;33123;50.118;10.272;2022-11-20T08:01:37;97071.97;;;2.86;70.26
47374;BME280;33123;50.118;10.272;2022-11-20T08:04:04;96949.69;;;2.04;70.24
47374;BME280;33123;50.118;10.272;2022-11-20T08:06:30;96803.63;;;1.08;70.51
47374;BME280;33123;50.118;10.272;2022-11-20T08:08:59;97059.53;;;2.88;70.49
47374;BME280;33123;50.118;10.272;2022-11-20T08:11:25;97050.22;;;2.99;70.35
47374;BME280;33123;50.118;10.272;2022-11-20T08:14:15;97084.81;;;3.31;70.22
47374;BME280;33123;50.118;10.272;2022-11-20T08:16:44;96826.59;;;1.74;69.79
47374;BME280;33123;50.118;10.272;2022-11-20T08:19:10;97014.44;;;2.94;69.90
47374;BME280;33123;50.118;10.272;2022-11-20T08:21:37;97096.91;;;3.43;69.99
47374;BME280;33123;50.118;10.272;2022-11-20T08:24:06;96782.47;;;1.42;69.67
47374;BME280;33123;50.118;10.272;2022-11-20T08:26:34;97091.44;;;3.52;69.89
47374;BME280;33123;50.118;10.272;2022-11-20T08:29:01;97009.13;;;3.07;69.26
47374;BME280;33123;50.118;10.272;2022-11-20T08:31:27;97089.78;;;3.57;69.26
47374;BME280;33123;50.118;10.272;2022-11-20T08:33:54;96954.38;;;2.71;69.43
47374;BME280;33123;50.118;10.272;2022-11-20T08:36:22;97048.72;;;3.34;69.44
47374;BME280;33123;50.118;10.272;2022-11-20T08:38:50;97102.50;;;3.65;69.97
47374;BME280;33123;50.118;10.272;2022-11-20T08:41:22;96787.53;;;1.55;68.52
47374;BME280;33123;50.118;10.272;2022-11-20T08:43:54;97030.59;;;3.21;69.32
47374;BME280;33123;50.118;10.272;2022-11-20T08:46:43;97110.47;;;3.70;69.24
47374;BME280;33123;50.118;10.272;2022-11-20T08:49:13;96742.22;;;1.26;68.64
47374;BME280;33123;50.118;10.272;2022-11-20T08:51:41;97112.03;;;3.53;68.80
47374;BME280;33123;50.118;10.272;2022-11-20T08:54:08;96938.53;;;2.29;68.74
47374;BME280;33123;50.118;10.272;2022-11-20T08:56:36;96818.31;;;1.58;68.90
47374;BME280;33123;50.118;10.272;2022-11-20T08:59:03;96933.69;;;2.32;69.74
47374;BME280;33123;50.118;10.272;2022-11-20T09:01:30;96952.81;;;2.45;70.21
47374;BME280;33123;50.118;10.272;2022-11-20T09:03:56;97090.75;;;3.38;69.97
47374;BME280;33123;50.118;10.272;2022-11-20T09:06:23;96941.97;;;2.48;70.18
47374;BME280;33123;50.118;10.272;2022-11-20T09:08:51;96876.28;;;2.09;70.23
47374;BME280;33123;50.118;10.272;2022-11-20T09:11:18;96826.53;;;1.80;69.96
47374;BME280;33123;50.118;10.272;2022-11-20T09:13:46;96696.94;;;0.91;69.37
47374;BME280;33123;50.118;10.272;2022-11-20T09:16:13;96875.97;;;2.24;70.04
47374;BME280;33123;50.118;10.272;2022-11-20T09:18:40;96766.09;;;1.42;69.58
47374;BME280;33123;50.118;10.272;2022-11-20T09:21:09;97004.94;;;3.06;69.39
47374;BME280;33123;50.118;10.272;2022-11-20T09:23:38;97073.59;;;3.49;69.67
47374;BME280;33123;50.118;10.272;2022-11-20T09:26:06;96778.69;;;1.38;70.32
47374;BME280;33123;50.118;10.272;2022-11-20T09:28:33;97057.34;;;3.10;69.89
47374;BME280;33123;50.118;10.272;2022-11-20T09:31:05;96977.38;;;2.74;69.89
47374;BME280;33123;50.118;10.272;2022-11-20T09:33:32;96845.63;;;1.93;69.94
47374;BME280;33123;50.118;10.272;2022-11-20T09:35:58;97090.78;;;3.56;70.36
47374;BME280;33123;50.118;10.272;2022-11-20T09:38:25;96945.28;;;2.61;69.55
47374;BME280;33123;50.118;10.272;2022-11-20T09:40:56;97036.97;;;3.25;69.38
47374;BME280;33123;50.118;10.272;2022-11-20T09:43:31;96893.25;;;2.36;69.46
47374;BME280;33123;50.118;10.272;2022-11-20T09:46:15;96632.09;;;0.59;69.27
47374;BME280;33123;50.118;10.272;2022-11-20T09:49:05;97011.16;;;3.24;69.09
47374;BME280;33123;50.118;10.272;2022-11-20T09:51:44;97109.16;;;3.98;69.01
47374;BME280;33123;50.118;10.272;2022-11-20T09:54:16;96990.09;;;3.25;68.29
47374;BME280;33123;50.118;10.272;2022-11-20T09:56:46;96771.91;;;1.87;68.54
47374;BME280;33123;50.118;10.272;2022-11-20T09:59:25;96768.75;;;1.85;68.67
47374;BME280;33123;50.118;10.272;2022-11-20T10:01:55;97105.53;;;3.99;68.24
47374;BME280;33123;50.118;10.272;2022-11-20T10:04:22;97111.91;;;4.03;69.05
47374;BME280;33123;50.118;10.272;2022-11-20T10:06:55;97080.72;;;3.96;68.76
47374;BME280;33123;50.118;10.272;2022-11-20T10:09:28;97096.56;;;4.13;68.92
47374;BME280;33123;50.118;10.272;2022-11-20T10:12:07;97088.44;;;4.21;68.60
47374;BME280;33123;50.118;10.272;2022-11-20T10:14:49;97087.56;;;4.28;68.31
47374;BME280;33123;50.118;10.272;2022-11-20T10:17:31;97092.47;;;4.36;68.31
47374;BME280;33123;50.118;10.272;2022-11-20T10:20:15;97087.34;;;4.29;68.01
47374;BME280;33123;50.118;10.272;2022-11-20T10:22:54;97095.25;;;4.22;68.54
47374;BME280;33123;50.118;10.272;2022-11-20T10:25:30;97092.78;;;4.28;68.44
47374;BME280;33123;50.118;10.272;2022-11-20T10:28:24;97097.13;;;4.34;68.75
47374;BME280;33123;50.118;10.272;2022-11-20T10:30:57;97085.53;;;4.30;68.49
47374;BME280;33123;50.118;10.272;2022-11-20T10:33:29;97084.50;;;4.31;68.53
47374;BME280;33123;50.118;10.272;2022-11-20T10:36:05;97086.75;;;4.27;68.49
47374;BME280;33123;50.118;10.272;2022-11-20T10:38:38;97083.72;;;4.30;68.57
47374;BME280;33123;50.118;10.272;2022-11-20T10:41:07;97091.31;;;4.32;69.03
47374;BME280;33123;50.118;10.272;2022-11-20T10:43:56;97085.81;;;4.40;68.89
47374;BME280;33123;50.118;10.272;2022-11-20T10:46:25;97085.81;;;4.40;68.41
47374;BME280;33123;50.118;10.272;2022-11-20T10:48:56;97076.03;;;4.35;68.10
47374;BME280;33123;50.118;10.272;2022-11-20T10:51:31;97080.13;;;4.43;68.82
47374;BME280;33123;50.118;10.272;2022-11-20T10:54:10;97077.22;;;4.51;68.33
47374;BME280;33123;50.118;10.272;2022-11-20T10:56:40;97078.81;;;4.52;68.96
47374;BME280;33123;50.118;10.272;2022-11-20T10:59:35;97066.56;;;4.64;68.03
47374;BME280;33123;50.118;10.272;2022-11-20T11:02:15;97069.75;;;4.66;67.68
47374;BME280;33123;50.118;10.272;2022-11-20T11:04:46;97071.25;;;4.74;68.37
47374;BME280;33123;50.118;10.272;2022-11-20T11:07:16;97069.00;;;4.78;67.77
47374;BME280;33123;50.118;10.272;2022-11-20T11:09:47;97068.91;;;4.84;67.82
47374;BME280;33123;50.118;10.272;2022-11-20T11:12:14;97063.09;;;4.82;67.39
47374;BME280;33123;50.118;10.272;2022-11-20T11:14:43;97069.00;;;4.78;67.44
47374;BME280;33123;50.118;10.272;2022-11-20T11:17:20;97062.88;;;4.72;66.75
47374;BME280;33123;50.118;10.272;2022-11-20T11:19:59;97057.41;;;4.73;67.50
47374;BME280;33123;50.118;10.272;2022-11-20T11:22:28;97057.75;;;4.77;67.54
47374;BME280;33123;50.118;10.272;2022-11-20T11:24:55;97054.91;;;4.67;67.90
47374;BME280;33123;50.118;10.272;2022-11-20T11:27:22;97048.69;;;4.80;68.01
47374;BME280;33123;50.118;10.272;2022-11-20T11:29:49;97053.44;;;4.83;67.73
47374;BME280;33123;50.118;10.272;2022-11-20T11:32:18;97058.09;;;4.81;67.83
47374;BME280;33123;50.118;10.272;2022-11-20T11:35:00;97062.13;;;4.95;67.63
47374;BME280;33123;50.118;10.272;2022-11-20T11:37:33;97052.34;;;5.02;67.80
47374;BME280;33123;50.118;10.272;2022-11-20T11:40:00;97054.28;;;5.07;67.62
47374;BME280;33123;50.118;10.272;2022-11-20T11:42:28;97047.47;;;5.06;67.32
47374;BME280;33123;50.118;10.272;2022-11-20T11:44:56;97042.56;;;5.09;67.69
47374;BME280;33123;50.118;10.272;2022-11-20T11:47:33;97042.03;;;5.19;68.07
47374;BME280;33123;50.118;10.272;2022-11-20T11:50:20;97035.09;;;5.24;67.70
47374;BME280;33123;50.118;10.272;2022-11-20T11:52:55;96977.59;;;4.66;67.45
47374;BME280;33123;50.118;10.272;2022-11-20T11:55:29;97028.84;;;5.14;67.46
47374;BME280;33123;50.118;10.272;2022-11-20T11:58:06;97031.22;;;5.15;67.80
47374;BME280;33123;50.118;10.272;2022-11-20T12:00:38;97035.41;;;5.16;67.61
47374;BME280;33123;50.118;10.272;2022-11-20T12:03:13;97034.66;;;5.27;68.48
47374;BME280;33123;50.118;10.272;2022-11-20T12:05:45;97037.34;;;5.33;67.69
47374;BME280;33123;50.118;10.272;2022-11-20T12:08:18;97034.84;;;5.38;68.00
47374;BME280;33123;50.118;10.272;2022-11-20T12:10:50;97036.91;;;5.36;67.62
47374;BME280;33123;50.118;10.272;2022-11-20T12:13:28;97029.41;;;5.51;67.00
47374;BME280;33123;50.118;10.272;2022-11-20T12:15:59;97027.00;;;5.61;67.25
47374;BME280;33123;50.118;10.272;2022-11-20T12:18:27;97031.84;;;5.69;67.77
47374;BME280;33123;50.118;10.272;2022-11-20T12:21:04;97028.06;;;5.77;67.31
47374;BME280;33123;50.118;10.272;2022-11-20T12:23:42;97026.28;;;5.77;66.78
47374;BME280;33123;50.118;10.272;2022-11-20T12:26:15;97020.13;;;5.83;66.77
47374;BME280;33123;50.118;10.272;2022-11-20T12:28:54;96965.53;;;5.47;67.50
47374;BME280;33123;50.118;10.272;2022-11-20T12:31:41;97013.41;;;5.76;67.17
47374;BME280;33123;50.118;10.272;2022-11-20T12:34:43;97012.75;;;5.69;67.12
47374;BME280;33123;50.118;10.272;2022-11-20T12:37:28;97006.63;;;5.63;67.58
47374;BME280;33123;50.118;10.272;2022-11-20T12:39:58;97008.56;;;5.68;67.62
47374;BME280;33123;50.118;10.272;2022-11-20T12:42:42;97017.44;;;5.67;67.28
47374;BME280;33123;50.118;10.272;2022-11-20T12:46:00;97015.13;;;5.70;68.06
47374;BME280;33123;50.118;10.272;2022-11-20T12:48:42;97004.03;;;5.63;68.18
47374;BME280;33123;50.118;10.272;2022-11-20T12:51:44;97012.06;;;5.73;68.09
47374;BME280;33123;50.118;10.272;2022-11-20T12:54:31;97011.03;;;5.74;68.25
47374;BME280;33123;50.118;10.272;2022-11-20T12:57:06;97013.22;;;5.77;68.69
47374;BME280;33123;50.118;10.272;2022-11-20T12:59:53;97006.38;;;5.76;68.16
47374;BME280;33123;50.118;10.272;2022-11-20T13:02:27;97010.84;;;5.64;67.29
47374;BME280;33123;50.118;10.272;2022-11-20T13:05:10;97013.69;;;5.63;67.47
47374;BME280;33123;50.118;10.272;2022-11-20T13:07:40;97013.00;;;5.67;67.69
47374;BME280;33123;50.118;10.272;2022-11-20T13:10:16;97010.72;;;5.59;68.39
47374;BME280;33123;50.118;10.272;2022-11-20T13:12:46;97011.22;;;5.56;67.97
47374;BME280;33123;50.118;10.272;2022-11-20T13:15:20;96923.84;;;5.00;68.38
47374;BME280;33123;50.118;10.272;2022-11-20T13:17:54;97002.22;;;5.52;67.94
47374;BME280;33123;50.118;10.272;2022-11-20T13:20:21;97011.44;;;5.43;68.56